Time;durP1;ratioP1;P1;durP2;ratioP2;P2;SDS_P1;SDS_P2;PMS_P1;PMS_P2;Temp;Humidity;BMP_temperature;BMP_pressure;BME280_temperature;BME280_humidity;BME280_pressure;Samples;Min_cycle;Max_cycle;Signal;HPM_P1;HPM_P2
2023/01/18 00:00:07;;;;;;;8.48;3.05;;;;;;;;;;4991839;28;20014;-65
2023/01/18 00:02:33;;;;;;;8.63;2.15;;;;;;;;;;4986129;28;20217;-64
2023/01/18 00:04:59;;;;;;;7.07;1.80;;;;;;;;;;4994456;28;20060;-64
2023/01/18 00:07:25;;;;;;;6.63;1.95;;;;;;;;;;4992643;28;20083;-64
2023/01/18 00:09:52;;;;;;;5.25;1.45;;;;;;;;;;4997809;28;20509;-64
2023/01/18 00:12:18;;;;;;;6.25;1.90;;;;;;;;;;4994185;28;20480;-65
2023/01/18 00:14:44;;;;;;;;;;;;;;;;;;4998069;28;20025;-65
2023/01/18 00:17:10;;;;;;;8.40;1.70;;;;;;;;;;4992923;28;19966;-65
2023/01/18 00:19:36;;;;;;;5.97;1.48;;;;;;;;;;4995851;28;20088;-65
2023/01/18 00:22:02;;;;;;;5.80;1.42;;;;;;;;;;4994784;28;20029;-65
2023/01/18 00:24:29;;;;;;;6.00;1.40;;;;;;;;;;4991239;28;20033;-65
2023/01/18 00:26:55;;;;;;;8.23;1.65;;;;;;;;;;4993089;28;20484;-65
2023/01/18 00:29:21;;;;;;;4.68;1.13;;;;;;;;;;4991483;28;20682;-65
2023/01/18 00:31:47;;;;;;;5.38;1.52;;;;;;;;;;4996232;28;20033;-65
2023/01/18 00:34:13;;;;;;;5.20;1.50;;;;;;;;;;4991915;28;20026;-65
2023/01/18 00:36:39;;;;;;;5.15;1.20;;;;;;;;;;4994672;28;20088;-65
2023/01/18 00:39:07;;;;;;;4.22;1.08;;;;;;;;;;4993191;28;20033;-66
2023/01/18 00:41:33;;;;;;;6.85;1.88;;;;;;;;;;4991327;28;20563;-65
2023/01/18 00:44:00;;;;;;;4.00;1.02;;;;;;;;;;4994791;28;20209;-65
2023/01/18 00:46:26;;;;;;;5.35;1.00;;;;;;;;;;4993008;28;20119;-66
2023/01/18 00:48:53;;;;;;;6.32;1.02;;;;;;;;;;4991269;28;20026;-66
2023/01/18 00:51:24;;;;;;;4.75;0.93;;;;;;;;;;4989800;28;20048;-65
2023/01/18 00:53:50;;;;;;;6.47;1.30;;;;;;;;;;4991762;28;20069;-65
2023/01/18 00:56:16;;;;;;;;;;;;;;;;;;4994078;28;20043;-66
2023/01/18 00:58:42;;;;;;;4.78;0.88;;;;;;;;;;4993671;28;19913;-65
2023/01/18 01:01:09;;;;;;;4.93;0.85;;;;;;;;;;4994975;28;20045;-65
2023/01/18 01:09:08;;;;;;;4.38;0.95;;;;;;;;;;5011698;28;20134;-66
2023/01/18 01:11:35;;;;;;;3.83;1.10;;;;;;;;;;5014208;28;20549;-66
2023/01/18 01:27:45;;;;;;;3.60;0.80;;;;;;;;;;5011556;28;20062;-67
2023/01/18 01:30:11;;;;;;;;;;;;;;;;;;5009630;28;20126;-67
2023/01/18 01:32:37;;;;;;;5.18;1.00;;;;;;;;;;5014226;28;20358;-66
2023/01/18 01:35:04;;;;;;;5.85;1.38;;;;;;;;;;5002353;28;20470;-67
2023/01/18 01:37:30;;;;;;;5.40;1.10;;;;;;;;;;5013621;28;20379;-65
2023/01/18 01:39:56;;;;;;;4.47;0.95;;;;;;;;;;4999661;28;20039;-65
2023/01/18 01:42:22;;;;;;;7.53;1.35;;;;;;;;;;5012827;28;20055;-67
2023/01/18 01:44:50;;;;;;;4.70;1.05;;;;;;;;;;5012944;28;20044;-65
2023/01/18 01:47:17;;;;;;;7.35;1.20;;;;;;;;;;5009209;28;20426;-65
2023/01/18 01:49:46;;;;;;;7.22;1.27;;;;;;;;;;5016586;28;20065;-64
2023/01/18 01:52:14;;;;;;;7.85;1.42;;;;;;;;;;5009122;28;20028;-65
2023/01/18 01:54:40;;;;;;;5.57;1.13;;;;;;;;;;5014613;28;20033;-65
2023/01/18 01:57:11;;;;;;;7.32;1.30;;;;;;;;;;5013621;28;20148;-65
2023/01/18 01:59:40;;;;;;;4.22;0.82;;;;;;;;;;5014499;28;20068;-66
2023/01/18 02:02:06;;;;;;;3.47;0.88;;;;;;;;;;5013997;28;20045;-64
2023/01/18 02:04:33;;;;;;;4.20;0.98;;;;;;;;;;4995378;28;20142;-65
2023/01/18 02:06:59;;;;;;;3.35;0.70;;;;;;;;;;5013672;28;20049;-65
2023/01/18 02:09:25;;;;;;;3.92;0.93;;;;;;;;;;4992689;28;20052;-67
2023/01/18 02:11:53;;;;;;;4.95;0.80;;;;;;;;;;5000180;28;20098;-65
2023/01/18 02:14:19;;;;;;;5.55;1.27;;;;;;;;;;5011101;28;20033;-64
2023/01/18 02:16:58;;;;;;;4.60;0.90;;;;;;;;;;4992950;28;20431;-64
2023/01/18 02:19:40;;;;;;;7.57;1.20;;;;;;;;;;5009082;28;20245;-63
2023/01/18 02:22:25;;;;;;;4.82;0.88;;;;;;;;;;5013086;28;20596;-64
2023/01/18 02:25:03;;;;;;;7.53;1.15;;;;;;;;;;5012294;28;20033;-63
2023/01/18 02:27:42;;;;;;;4.10;0.77;;;;;;;;;;5008132;28;20670;-63
2023/01/18 02:30:08;;;;;;;6.55;1.30;;;;;;;;;;5014629;28;20438;-63
2023/01/18 02:32:37;;;;;;;22.70;14.13;;;;;;;;;;5013066;28;20084;-64
2023/01/18 02:35:11;;;;;;;18.45;12.10;;;;;;;;;;5013374;28;20505;-64
2023/01/18 02:37:49;;;;;;;11.55;5.03;;;;;;;;;;4995541;28;20071;-66
2023/01/18 02:40:33;;;;;;;6.55;1.60;;;;;;;;;;5009437;28;20052;-63
2023/01/18 02:48:36;;;;;;;8.50;1.73;;;;;;;;;;5010566;28;20044;-65
2023/01/18 02:51:02;;;;;;;6.72;1.20;;;;;;;;;;5013059;28;20033;-65
2023/01/18 02:53:29;;;;;;;4.28;0.90;;;;;;;;;;5004932;28;20391;-65
2023/01/18 02:55:58;;;;;;;8.10;1.17;;;;;;;;;;4995359;28;20035;-65
2023/01/18 02:58:30;;;;;;;4.55;0.90;;;;;;;;;;5007214;28;20358;-65
2023/01/18 03:01:03;;;;;;;7.13;1.27;;;;;;;;;;5011519;28;20048;-65
2023/01/18 03:03:29;;;;;;;7.07;1.08;;;;;;;;;;5004970;28;21134;-65
2023/01/18 03:05:58;;;;;;;8.80;0.98;;;;;;;;;;5011935;28;20534;-65
2023/01/18 03:08:28;;;;;;;5.05;0.82;;;;;;;;;;4990144;28;20252;-65
2023/01/18 03:10:59;;;;;;;7.18;1.30;;;;;;;;;;5011434;28;20036;-66
2023/01/18 03:13:30;;;;;;;6.75;1.20;;;;;;;;;;4993661;28;20025;-65
2023/01/18 03:16:09;;;;;;;6.03;1.13;;;;;;;;;;5010782;28;20029;-65
2023/01/18 03:19:01;;;;;;;7.15;1.00;;;;;;;;;;5010624;28;20041;-65
2023/01/18 03:21:33;;;;;;;9.88;1.55;;;;;;;;;;5003057;28;20324;-65
2023/01/18 03:24:01;;;;;;;7.50;1.20;;;;;;;;;;5007386;28;20147;-65
2023/01/18 03:26:28;;;;;;;6.93;1.05;;;;;;;;;;5009944;28;20032;-65
2023/01/18 03:34:38;;;;;;;7.45;1.40;;;;;;;;;;5013935;28;20122;-65
2023/01/18 03:37:07;;;;;;;9.15;1.40;;;;;;;;;;5013784;28;20472;-65
2023/01/18 03:39:36;;;;;;;9.00;1.55;;;;;;;;;;4999790;28;20152;-65
2023/01/18 03:42:10;;;;;;;4.20;1.00;;;;;;;;;;5000973;28;20032;-65
2023/01/18 03:44:56;;;;;;;9.05;1.55;;;;;;;;;;4998233;28;20029;-65
2023/01/18 03:47:22;;;;;;;5.45;1.20;;;;;;;;;;5000909;28;20118;-65
2023/01/18 03:49:49;;;;;;;10.27;1.30;;;;;;;;;;5017920;28;20263;-65
2023/01/18 03:52:25;;;;;;;6.25;1.42;;;;;;;;;;5016108;28;21315;-68
2023/01/18 03:54:51;;;;;;;7.45;1.45;;;;;;;;;;4996993;28;20297;-68
2023/01/18 03:57:25;;;;;;;7.68;1.20;;;;;;;;;;5017655;28;20033;-68
2023/01/18 03:59:54;;;;;;;6.03;1.10;;;;;;;;;;5019742;28;20032;-68
2023/01/18 04:02:21;;;;;;;7.03;1.23;;;;;;;;;;5012173;28;20044;-68
2023/01/18 04:04:47;;;;;;;7.57;1.33;;;;;;;;;;5012174;28;20048;-67
2023/01/18 04:07:14;;;;;;;6.35;1.10;;;;;;;;;;5011717;28;20147;-67
2023/01/18 04:09:40;;;;;;;5.70;1.08;;;;;;;;;;5018135;28;20589;-68
2023/01/18 04:12:06;;;;;;;7.95;1.27;;;;;;;;;;5014967;28;20038;-68
2023/01/18 04:14:32;;;;;;;6.07;1.50;;;;;;;;;;5015723;28;20037;-67
2023/01/18 04:16:58;;;;;;;4.20;1.02;;;;;;;;;;5018164;28;20098;-69
2023/01/18 04:19:27;;;;;;;6.22;1.17;;;;;;;;;;5012479;28;20029;-67
2023/01/18 04:21:53;;;;;;;7.40;1.13;;;;;;;;;;5015441;28;20272;-67
2023/01/18 04:24:19;;;;;;;4.28;0.90;;;;;;;;;;5015135;28;20079;-67
2023/01/18 04:26:45;;;;;;;7.72;1.23;;;;;;;;;;5014084;28;20562;-67
2023/01/18 04:29:11;;;;;;;8.07;1.05;;;;;;;;;;5010899;28;20032;-69
2023/01/18 04:31:37;;;;;;;6.55;1.23;;;;;;;;;;4997002;28;20083;-69
2023/01/18 04:34:03;;;;;;;5.35;1.17;;;;;;;;;;5014042;28;20061;-67
2023/01/18 04:36:30;;;;;;;6.38;1.30;;;;;;;;;;5012541;28;20048;-67
2023/01/18 04:38:56;;;;;;;;;;;;;;;;;;4999556;28;20033;-67
2023/01/18 04:41:23;;;;;;;7.68;1.25;;;;;;;;;;5011746;28;19917;-67
2023/01/18 04:43:49;;;;;;;6.60;1.25;;;;;;;;;;5017921;28;20489;-67
2023/01/18 04:46:15;;;;;;;6.80;1.10;;;;;;;;;;4995458;28;20101;-67
2023/01/18 04:48:42;;;;;;;6.75;1.30;;;;;;;;;;5015617;28;20386;-67
2023/01/18 04:51:14;;;;;;;6.82;1.00;;;;;;;;;;5015907;28;20108;-69
2023/01/18 04:53:41;;;;;;;5.63;0.90;;;;;;;;;;5014354;28;20032;-69
2023/01/18 04:56:07;;;;;;;6.10;1.13;;;;;;;;;;5016477;28;20211;-69
2023/01/18 04:58:33;;;;;;;7.80;1.23;;;;;;;;;;5010181;28;20473;-69
2023/01/18 05:01:01;;;;;;;4.35;0.85;;;;;;;;;;5013619;28;20468;-68
2023/01/18 05:03:27;;;;;;;5.53;0.90;;;;;;;;;;4996222;28;20025;-69
2023/01/18 05:05:54;;;;;;;6.40;1.20;;;;;;;;;;5015122;28;20732;-68
2023/01/18 05:08:20;;;;;;;4.80;1.00;;;;;;;;;;4996269;28;20507;-69
2023/01/18 05:10:46;;;;;;;5.28;1.08;;;;;;;;;;4999554;28;20079;-71
2023/01/18 05:13:12;;;;;;;4.43;0.95;;;;;;;;;;5012397;28;20028;-69
2023/01/18 05:15:38;;;;;;;6.43;1.10;;;;;;;;;;5010912;28;20021;-69
2023/01/18 05:18:06;;;;;;;5.15;1.02;;;;;;;;;;4994601;28;20028;-68
2023/01/18 05:20:32;;;;;;;8.63;1.38;;;;;;;;;;5013586;28;20026;-69
2023/01/18 05:22:58;;;;;;;6.93;1.10;;;;;;;;;;5016824;28;20135;-69
2023/01/18 05:25:24;;;;;;;5.63;1.00;;;;;;;;;;5009086;28;20052;-68
2023/01/18 05:27:50;;;;;;;7.47;1.10;;;;;;;;;;4997010;28;20324;-69
2023/01/18 05:30:20;;;;;;;8.40;1.17;;;;;;;;;;5012760;28;20033;-69
2023/01/18 05:32:46;;;;;;;4.95;1.05;;;;;;;;;;5016081;28;20955;-69
2023/01/18 05:35:13;;;;;;;6.80;1.13;;;;;;;;;;5012866;28;20403;-67
2023/01/18 05:37:39;;;;;;;5.13;1.00;;;;;;;;;;5014023;28;20029;-67
2023/01/18 05:40:05;;;;;;;4.38;0.85;;;;;;;;;;5015897;28;20033;-67
2023/01/18 05:42:32;;;;;;;3.67;0.90;;;;;;;;;;5009689;28;20048;-67
2023/01/18 05:44:58;;;;;;;5.97;1.13;;;;;;;;;;5011686;28;20021;-66
2023/01/18 05:47:24;;;;;;;5.30;1.10;;;;;;;;;;4992402;28;20033;-66
2023/01/18 05:49:50;;;;;;;7.05;1.27;;;;;;;;;;5011943;28;20226;-66
2023/01/18 05:52:16;;;;;;;6.53;1.10;;;;;;;;;;4989324;28;20044;-66
2023/01/18 05:54:42;;;;;;;8.73;1.55;;;;;;;;;;5012737;28;20302;-66
2023/01/18 05:57:09;;;;;;;7.88;1.30;;;;;;;;;;5014423;28;20210;-66
2023/01/18 05:59:36;;;;;;;6.78;1.40;;;;;;;;;;5008923;28;20377;-66
2023/01/18 06:02:03;;;;;;;7.82;1.25;;;;;;;;;;4995634;28;20178;-66
2023/01/18 06:04:29;;;;;;;8.30;1.30;;;;;;;;;;5009502;28;20211;-66
2023/01/18 06:06:55;;;;;;;8.18;1.52;;;;;;;;;;5014631;28;20029;-67
2023/01/18 06:09:22;;;;;;;6.03;1.17;;;;;;;;;;5010387;28;20021;-68
2023/01/18 06:11:48;;;;;;;8.65;1.38;;;;;;;;;;5013976;28;20374;-68
2023/01/18 06:14:14;;;;;;;6.93;1.20;;;;;;;;;;5008034;28;20514;-68
2023/01/18 06:16:40;;;;;;;7.50;1.17;;;;;;;;;;5012431;28;20037;-66
2023/01/18 06:19:06;;;;;;;6.53;1.40;;;;;;;;;;5013931;28;20036;-68
2023/01/18 06:21:32;;;;;;;8.50;1.42;;;;;;;;;;4992753;28;20064;-67
2023/01/18 06:23:58;;;;;;;7.13;1.30;;;;;;;;;;5011256;28;20131;-67
2023/01/18 06:26:25;;;;;;;8.27;1.52;;;;;;;;;;5011083;28;20021;-67
2023/01/18 06:28:51;;;;;;;6.65;1.20;;;;;;;;;;5014059;28;20178;-67
2023/01/18 06:31:17;;;;;;;6.07;1.23;;;;;;;;;;5009831;28;20037;-67
2023/01/18 06:33:43;;;;;;;5.43;1.05;;;;;;;;;;5016265;28;20037;-67
2023/01/18 06:36:09;;;;;;;;;;;;;;;;;;5010435;28;20040;-66
2023/01/18 06:38:36;;;;;;;8.38;1.40;;;;;;;;;;4998234;28;19912;-67
2023/01/18 06:41:02;;;;;;;5.60;1.30;;;;;;;;;;4998783;28;20117;-66
2023/01/18 06:43:28;;;;;;;6.68;1.40;;;;;;;;;;5006673;28;20547;-68
2023/01/18 06:45:55;;;;;;;6.80;1.38;;;;;;;;;;5014485;28;20017;-67
2023/01/18 06:48:22;;;;;;;8.45;1.52;;;;;;;;;;5010348;28;20041;-66
2023/01/18 06:50:51;;;;;;;7.13;1.40;;;;;;;;;;5013633;28;20348;-67
2023/01/18 06:53:17;;;;;;;5.15;1.20;;;;;;;;;;5010614;28;20182;-67
2023/01/18 06:55:44;;;;;;;7.10;1.60;;;;;;;;;;5015215;28;20028;-67
2023/01/18 06:58:10;;;;;;;7.22;1.70;;;;;;;;;;4991653;28;20344;-67
2023/01/18 07:00:37;;;;;;;8.30;2.15;;;;;;;;;;5012026;28;20495;-67
2023/01/18 07:03:04;;;;;;;9.13;2.40;;;;;;;;;;5012277;28;20376;-67
2023/01/18 07:05:30;;;;;;;9.55;2.78;;;;;;;;;;5007614;28;21105;-67
2023/01/18 07:07:56;;;;;;;7.00;1.90;;;;;;;;;;5015133;28;20037;-67
2023/01/18 07:10:22;;;;;;;8.73;2.78;;;;;;;;;;5009962;28;20028;-67
2023/01/18 07:12:49;;;;;;;7.72;1.83;;;;;;;;;;5011740;28;20063;-67
2023/01/18 07:15:16;;;;;;;8.27;2.10;;;;;;;;;;5010223;28;20430;-67
2023/01/18 07:17:43;;;;;;;6.05;1.33;;;;;;;;;;4993376;28;20894;-67
2023/01/18 07:20:10;;;;;;;10.35;1.88;;;;;;;;;;5007955;28;20024;-67
2023/01/18 07:22:36;;;;;;;7.32;1.50;;;;;;;;;;5014368;28;20043;-67
2023/01/18 07:25:02;;;;;;;8.23;1.90;;;;;;;;;;5010471;28;20467;-67
2023/01/18 07:27:29;;;;;;;6.97;1.80;;;;;;;;;;5009898;28;22367;-67
2023/01/18 07:29:55;;;;;;;6.95;1.50;;;;;;;;;;5013576;28;20428;-66
2023/01/18 07:32:21;;;;;;;10.15;2.42;;;;;;;;;;5002970;28;20461;-67
2023/01/18 07:34:47;;;;;;;7.45;1.80;;;;;;;;;;5010555;28;20041;-66
2023/01/18 07:37:13;;;;;;;8.68;1.70;;;;;;;;;;5005901;28;20060;-67
2023/01/18 07:39:39;;;;;;;6.45;1.60;;;;;;;;;;4992595;28;20573;-67
2023/01/18 07:42:06;;;;;;;7.88;1.70;;;;;;;;;;5013142;28;20033;-66
2023/01/18 07:44:32;;;;;;;8.30;1.90;;;;;;;;;;4990996;28;20025;-66
2023/01/18 07:46:58;;;;;;;9.35;2.03;;;;;;;;;;5011408;28;20432;-66
2023/01/18 07:49:24;;;;;;;5.22;1.05;;;;;;;;;;5005757;28;20083;-66
2023/01/18 07:51:50;;;;;;;6.32;1.77;;;;;;;;;;5011379;28;20033;-65
2023/01/18 07:54:17;;;;;;;13.82;2.08;;;;;;;;;;5008649;28;20286;-67
2023/01/18 07:56:44;;;;;;;6.22;1.30;;;;;;;;;;5006344;28;20034;-66
2023/01/18 07:59:10;;;;;;;7.13;1.30;;;;;;;;;;5006426;28;20072;-66
2023/01/18 08:01:36;;;;;;;9.05;1.67;;;;;;;;;;5013159;28;20182;-67
2023/01/18 08:04:02;;;;;;;8.25;2.20;;;;;;;;;;5012800;28;20413;-67
2023/01/18 08:06:28;;;;;;;7.68;2.05;;;;;;;;;;5004792;28;20045;-67
2023/01/18 08:08:55;;;;;;;6.85;1.48;;;;;;;;;;5010414;28;20523;-66
2023/01/18 08:11:22;;;;;;;7.22;1.30;;;;;;;;;;4991346;28;20507;-66
2023/01/18 08:13:49;;;;;;;5.82;1.27;;;;;;;;;;5010408;28;20021;-66
2023/01/18 08:16:16;;;;;;;4.82;1.10;;;;;;;;;;5009177;28;20056;-66
2023/01/18 08:18:44;;;;;;;6.03;1.10;;;;;;;;;;5011427;28;20033;-65
2023/01/18 08:21:11;;;;;;;4.80;1.20;;;;;;;;;;5009176;28;20043;-65
2023/01/18 08:23:38;;;;;;;6.55;1.27;;;;;;;;;;5010527;28;20674;-68
2023/01/18 08:26:04;;;;;;;7.30;2.08;;;;;;;;;;5014040;28;20415;-68
2023/01/18 08:28:30;;;;;;;;;;;;;;;;;;5013844;28;20101;-66
2023/01/18 08:31:05;;;;;;;6.80;1.70;;;;;;;;;;5015571;28;19916;-66
2023/01/18 08:33:31;;;;;;;6.18;1.30;;;;;;;;;;5011112;28;20029;-67
2023/01/18 08:35:57;;;;;;;6.22;1.30;;;;;;;;;;5015391;28;20128;-66
2023/01/18 08:38:23;;;;;;;4.97;1.17;;;;;;;;;;5011689;28;20033;-67
2023/01/18 08:40:49;;;;;;;7.00;1.35;;;;;;;;;;5014145;28;20355;-66
2023/01/18 08:43:15;;;;;;;4.93;1.20;;;;;;;;;;5007995;28;20087;-66
2023/01/18 08:45:42;;;;;;;5.68;1.30;;;;;;;;;;4997561;28;20139;-67
2023/01/18 08:48:10;;;;;;;5.95;1.27;;;;;;;;;;5014000;28;20416;-67
2023/01/18 08:50:37;;;;;;;5.45;1.15;;;;;;;;;;5009507;28;20025;-67
2023/01/18 08:53:04;;;;;;;5.30;0.98;;;;;;;;;;5013333;28;20249;-66
2023/01/18 08:55:30;;;;;;;4.90;1.13;;;;;;;;;;5009303;28;20347;-67
2023/01/18 08:57:57;;;;;;;5.60;1.05;;;;;;;;;;5016445;28;20028;-67
2023/01/18 09:00:27;;;;;;;7.88;1.55;;;;;;;;;;5008689;28;20032;-67
2023/01/18 09:02:53;;;;;;;5.32;1.27;;;;;;;;;;5015610;28;20125;-67
2023/01/18 09:05:19;;;;;;;;;;;;;;;;;;5008130;28;20554;-67
2023/01/18 09:07:46;;;;;;;3.33;1.00;;;;;;;;;;5014702;28;20033;-67
2023/01/18 09:10:12;;;;;;;5.18;1.05;;;;;;;;;;4993310;28;20030;-67
2023/01/18 09:12:39;;;;;;;4.80;1.25;;;;;;;;;;5012963;28;20033;-67
2023/01/18 09:15:05;;;;;;;6.45;1.20;;;;;;;;;;5015375;28;20528;-67
2023/01/18 09:17:32;;;;;;;7.68;1.15;;;;;;;;;;5007076;28;20258;-66
2023/01/18 09:19:58;;;;;;;6.25;1.30;;;;;;;;;;5013678;28;20029;-67
2023/01/18 09:22:24;;;;;;;6.07;1.30;;;;;;;;;;5007867;28;20033;-67
2023/01/18 09:24:50;;;;;;;;;;;;;;;;;;5015984;28;20059;-67
2023/01/18 09:27:17;;;;;;;8.43;1.10;;;;;;;;;;5008231;28;20351;-66
2023/01/18 09:29:45;;;;;;;;;;;;;;;;;;5013962;28;20032;-65
2023/01/18 09:32:12;;;;;;;3.95;0.80;;;;;;;;;;5009294;28;19917;-68
2023/01/18 09:34:38;;;;;;;3.63;0.80;;;;;;;;;;5013524;28;20033;-66
2023/01/18 09:37:05;;;;;;;5.43;0.98;;;;;;;;;;4990848;28;20036;-66
2023/01/18 09:39:31;;;;;;;5.72;0.88;;;;;;;;;;5011129;28;20021;-66
2023/01/18 09:41:57;;;;;;;;;;;;;;;;;;5006325;28;20037;-66
2023/01/18 09:44:27;;;;;;;4.10;0.82;;;;;;;;;;4994432;28;19917;-66
2023/01/18 09:47:04;;;;;;;6.90;1.10;;;;;;;;;;4996751;28;20116;-68
2023/01/18 09:49:37;;;;;;;4.88;0.82;;;;;;;;;;4992222;28;20039;-66
2023/01/18 09:52:18;;;;;;;4.15;0.93;;;;;;;;;;5011991;28;20056;-66
2023/01/18 09:54:48;;;;;;;4.53;1.00;;;;;;;;;;5011601;28;20029;-66
2023/01/18 09:57:27;;;;;;;4.78;0.90;;;;;;;;;;5008217;28;20519;-67
2023/01/18 09:59:58;;;;;;;6.28;1.25;;;;;;;;;;5014502;28;20955;-67
2023/01/18 10:02:44;;;;;;;4.15;1.00;;;;;;;;;;4987355;28;20474;-67
2023/01/18 10:05:16;;;;;;;5.00;1.20;;;;;;;;;;5009914;28;20053;-66
2023/01/18 10:08:06;;;;;;;4.38;1.00;;;;;;;;;;5010404;28;20667;-67
2023/01/18 10:10:40;;;;;;;9.52;1.42;;;;;;;;;;5009552;28;20036;-67
2023/01/18 10:13:25;;;;;;;4.20;1.08;;;;;;;;;;5011573;28;20847;-67
2023/01/18 10:15:51;;;;;;;4.93;1.10;;;;;;;;;;5011727;28;20368;-67
2023/01/18 10:18:18;;;;;;;6.38;1.00;;;;;;;;;;5004942;28;20491;-67
2023/01/18 10:20:57;;;;;;;5.85;1.35;;;;;;;;;;4994405;28;20033;-67
2023/01/18 10:23:33;;;;;;;6.20;1.20;;;;;;;;;;4990732;28;20044;-66
2023/01/18 10:26:06;;;;;;;5.28;1.52;;;;;;;;;;5014171;28;20021;-66
2023/01/18 10:28:38;;;;;;;5.80;1.35;;;;;;;;;;5009149;28;20388;-67
2023/01/18 10:31:11;;;;;;;5.20;0.95;;;;;;;;;;5012239;28;20037;-67
2023/01/18 10:33:39;;;;;;;3.03;0.80;;;;;;;;;;5012203;28;21135;-67
2023/01/18 10:36:24;;;;;;;7.05;1.20;;;;;;;;;;5007717;28;20451;-67
2023/01/18 10:38:52;;;;;;;5.47;0.98;;;;;;;;;;4993470;28;20090;-67
2023/01/18 10:41:19;;;;;;;7.13;1.20;;;;;;;;;;5010456;28;20168;-67
2023/01/18 10:43:46;;;;;;;6.22;1.10;;;;;;;;;;5012286;28;20035;-67
2023/01/18 10:46:13;;;;;;;8.85;1.20;;;;;;;;;;5008835;28;20415;-67
2023/01/18 10:48:44;;;;;;;6.50;1.02;;;;;;;;;;5005722;28;20562;-67
2023/01/18 10:51:22;;;;;;;7.00;1.25;;;;;;;;;;5005677;28;20112;-67
2023/01/18 10:53:49;;;;;;;6.80;1.27;;;;;;;;;;5012233;28;20035;-67
2023/01/18 10:56:19;;;;;;;5.68;1.20;;;;;;;;;;5006915;28;20444;-67
2023/01/18 10:58:51;;;;;;;6.57;1.27;;;;;;;;;;5007865;28;20037;-67
2023/01/18 11:01:26;;;;;;;5.70;1.35;;;;;;;;;;5006959;28;20650;-69
2023/01/18 11:04:05;;;;;;;8.48;1.70;;;;;;;;;;5010115;28;20494;-67
2023/01/18 11:06:52;;;;;;;6.82;1.50;;;;;;;;;;5002679;28;20528;-66
2023/01/18 11:09:37;;;;;;;9.68;1.77;;;;;;;;;;4989299;28;20641;-66
2023/01/18 11:12:36;;;;;;;7.15;1.50;;;;;;;;;;5007738;28;20040;-66
2023/01/18 11:15:25;;;;;;;6.40;1.30;;;;;;;;;;5007486;28;20845;-67
2023/01/18 11:17:56;;;;;;;6.45;1.20;;;;;;;;;;4981091;28;20354;-67
2023/01/18 11:20:24;;;;;;;3.97;1.08;;;;;;;;;;5008144;28;20029;-68
2023/01/18 11:22:57;;;;;;;8.52;1.50;;;;;;;;;;5010309;28;20040;-68
2023/01/18 11:25:26;;;;;;;6.13;1.30;;;;;;;;;;5006025;28;20033;-68
2023/01/18 11:27:52;;;;;;;6.85;1.75;;;;;;;;;;5011010;28;20128;-68
2023/01/18 11:30:20;;;;;;;6.55;1.33;;;;;;;;;;5002603;28;20263;-68
2023/01/18 11:32:46;;;;;;;6.75;1.70;;;;;;;;;;5013656;28;20024;-68
2023/01/18 11:35:30;;;;;;;8.35;2.13;;;;;;;;;;5008323;28;20033;-68
2023/01/18 11:38:05;;;;;;;7.32;2.45;;;;;;;;;;5012016;28;21073;-68
2023/01/18 11:40:33;;;;;;;9.55;2.38;;;;;;;;;;5007684;28;20025;-68
2023/01/18 11:43:00;;;;;;;6.72;1.80;;;;;;;;;;4993409;28;20033;-68
2023/01/18 11:45:29;;;;;;;5.90;1.50;;;;;;;;;;5003897;28;20025;-68
2023/01/18 11:48:02;;;;;;;9.50;1.70;;;;;;;;;;4991473;28;20029;-68
2023/01/18 11:50:37;;;;;;;9.43;2.03;;;;;;;;;;5006611;28;20339;-66
2023/01/18 11:53:11;;;;;;;7.80;2.00;;;;;;;;;;5010829;28;20112;-67
2023/01/18 11:56:04;;;;;;;6.25;1.40;;;;;;;;;;5009422;28;20336;-67
2023/01/18 11:58:31;;;;;;;6.40;1.30;;;;;;;;;;5007163;28;20562;-70
2023/01/18 12:01:03;;;;;;;7.00;1.08;;;;;;;;;;5011372;28;20543;-67
2023/01/18 12:03:29;;;;;;;4.72;1.02;;;;;;;;;;5009046;28;20498;-69
2023/01/18 12:06:02;;;;;;;7.05;1.25;;;;;;;;;;4997064;28;20081;-67
2023/01/18 12:08:37;;;;;;;9.15;1.40;;;;;;;;;;5009000;28;20040;-68
2023/01/18 12:11:21;;;;;;;9.90;2.00;;;;;;;;;;5010420;28;20063;-67
2023/01/18 12:14:12;;;;;;;7.25;1.27;;;;;;;;;;5008762;28;20346;-67
2023/01/18 12:16:57;;;;;;;7.53;1.38;;;;;;;;;;4999257;28;20879;-67
2023/01/18 12:19:35;;;;;;;7.38;1.77;;;;;;;;;;5007477;28;20345;-67
2023/01/18 12:22:21;;;;;;;8.18;2.00;;;;;;;;;;5008899;28;21218;-68
2023/01/18 12:24:47;;;;;;;7.07;1.35;;;;;;;;;;5009660;28;20471;-67
2023/01/18 12:27:21;;;;;;;10.55;2.08;;;;;;;;;;5009328;28;20122;-67
2023/01/18 12:29:56;;;;;;;9.15;1.48;;;;;;;;;;5012584;28;20493;-68
2023/01/18 12:32:29;;;;;;;7.82;1.92;;;;;;;;;;5009502;28;20098;-68
2023/01/18 12:35:13;;;;;;;9.35;1.65;;;;;;;;;;5009940;28;20045;-67
2023/01/18 12:37:45;;;;;;;7.05;1.60;;;;;;;;;;5016101;28;20029;-68
2023/01/18 12:40:30;;;;;;;9.20;2.45;;;;;;;;;;5011883;28;20052;-68
2023/01/18 12:42:59;;;;;;;11.13;2.92;;;;;;;;;;5006459;28;20123;-68
2023/01/18 12:45:36;;;;;;;11.13;2.35;;;;;;;;;;5011053;28;20029;-68
2023/01/18 12:48:15;;;;;;;9.65;2.78;;;;;;;;;;5014570;28;20042;-70
2023/01/18 12:50:43;;;;;;;11.40;2.35;;;;;;;;;;5014127;28;20111;-69
2023/01/18 12:53:15;;;;;;;7.85;2.15;;;;;;;;;;5006575;28;20108;-68
2023/01/18 12:55:44;;;;;;;8.85;2.42;;;;;;;;;;4994842;28;20438;-69
2023/01/18 12:58:13;;;;;;;8.45;2.10;;;;;;;;;;4994417;28;20585;-69
2023/01/18 13:00:45;;;;;;;6.35;1.45;;;;;;;;;;5015406;28;20454;-67
2023/01/18 13:03:17;;;;;;;9.43;1.38;;;;;;;;;;5003627;28;20021;-67
2023/01/18 13:05:51;;;;;;;6.15;1.60;;;;;;;;;;4990854;28;20460;-67
2023/01/18 13:08:26;;;;;;;13.23;2.90;;;;;;;;;;4990796;28;20560;-68
2023/01/18 13:10:53;;;;;;;8.95;2.65;;;;;;;;;;4990120;28;20040;-68
2023/01/18 13:13:22;;;;;;;10.30;2.90;;;;;;;;;;4990802;28;20026;-67
2023/01/18 13:16:00;;;;;;;7.60;2.17;;;;;;;;;;4993799;28;20139;-68
2023/01/18 13:18:39;;;;;;;7.35;1.95;;;;;;;;;;4991201;28;20030;-68
2023/01/18 13:21:11;;;;;;;10.43;2.42;;;;;;;;;;4996476;28;20026;-67
2023/01/18 13:23:54;;;;;;;8.95;2.22;;;;;;;;;;4987337;28;20030;-67
2023/01/18 13:26:24;;;;;;;10.85;2.50;;;;;;;;;;4990433;28;20048;-67
2023/01/18 13:29:11;;;;;;;6.63;1.67;;;;;;;;;;4993946;28;20081;-67
2023/01/18 13:31:37;;;;;;;9.88;1.95;;;;;;;;;;4990467;28;20040;-67
2023/01/18 13:34:03;;;;;;;9.20;2.22;;;;;;;;;;4990141;28;20118;-69
2023/01/18 13:36:50;;;;;;;9.80;2.10;;;;;;;;;;4990247;28;20785;-69
2023/01/18 13:39:18;;;;;;;10.40;2.67;;;;;;;;;;4986943;28;20732;-68
2023/01/18 13:42:00;;;;;;;9.48;2.35;;;;;;;;;;4987476;28;20037;-66
2023/01/18 13:44:31;;;;;;;10.32;3.08;;;;;;;;;;4990808;28;20413;-69
2023/01/18 13:46:59;;;;;;;12.07;2.15;;;;;;;;;;4992456;28;20010;-69
2023/01/18 13:49:33;;;;;;;10.25;2.65;;;;;;;;;;4985162;28;20829;-68
2023/01/18 13:51:59;;;;;;;10.13;2.58;;;;;;;;;;5012893;28;20027;-68
2023/01/18 13:54:28;;;;;;;9.82;2.42;;;;;;;;;;4987681;28;20172;-68
2023/01/18 13:57:02;;;;;;;7.60;2.17;;;;;;;;;;4992143;28;20096;-68
2023/01/18 13:59:32;;;;;;;7.85;2.03;;;;;;;;;;5001461;28;20434;-69
2023/01/18 14:02:17;;;;;;;6.47;1.83;;;;;;;;;;4991953;28;20037;-68
2023/01/18 14:04:44;;;;;;;5.60;1.70;;;;;;;;;;4989109;28;20457;-68
2023/01/18 14:07:18;;;;;;;9.18;2.20;;;;;;;;;;4990310;28;20121;-68
2023/01/18 14:09:45;;;;;;;8.90;2.13;;;;;;;;;;4991283;28;20040;-69
2023/01/18 14:12:13;;;;;;;7.78;1.90;;;;;;;;;;4979417;28;20087;-68
2023/01/18 14:14:55;;;;;;;9.75;2.10;;;;;;;;;;4994348;28;20036;-69
2023/01/18 14:17:21;;;;;;;9.38;1.52;;;;;;;;;;4987334;28;20042;-70
2023/01/18 14:19:47;;;;;;;10.82;2.78;;;;;;;;;;4989120;28;20108;-71
2023/01/18 14:22:19;;;;;;;15.07;6.90;;;;;;;;;;5005801;28;20025;-69
2023/01/18 14:25:05;;;;;;;12.55;5.30;;;;;;;;;;4990847;28;20033;-68
2023/01/18 14:27:35;;;;;;;10.75;4.15;;;;;;;;;;4987820;28;20032;-70
2023/01/18 14:30:10;;;;;;;11.65;4.65;;;;;;;;;;4993059;28;20022;-68
2023/01/18 14:32:38;;;;;;;12.85;4.72;;;;;;;;;;4993944;28;20048;-69
2023/01/18 14:35:21;;;;;;;9.20;3.70;;;;;;;;;;4989099;28;20041;-67
2023/01/18 14:37:48;;;;;;;9.70;3.05;;;;;;;;;;4992927;28;20499;-69
2023/01/18 14:40:14;;;;;;;;;;;;;;;;;;4988412;28;20033;-66
2023/01/18 14:42:46;;;;;;;7.40;2.00;;;;;;;;;;5002234;28;20327;-67
2023/01/18 14:45:39;;;;;;;6.80;1.63;;;;;;;;;;4987206;28;20048;-66
2023/01/18 14:48:10;;;;;;;7.15;1.65;;;;;;;;;;4990251;28;20037;-67
2023/01/18 14:50:41;;;;;;;6.47;1.67;;;;;;;;;;5004981;28;20021;-67
2023/01/18 14:53:12;;;;;;;10.05;2.20;;;;;;;;;;4990854;28;20106;-67
2023/01/18 14:55:39;;;;;;;6.80;2.22;;;;;;;;;;4992562;28;20341;-67
2023/01/18 14:58:16;;;;;;;8.50;2.40;;;;;;;;;;4992012;28;20475;-67
2023/01/18 15:00:43;;;;;;;8.18;1.70;;;;;;;;;;4990072;28;20480;-70
2023/01/18 15:03:13;;;;;;;8.18;2.33;;;;;;;;;;4990875;28;21477;-66
2023/01/18 15:05:40;;;;;;;11.23;2.85;;;;;;;;;;4984612;28;20046;-67
2023/01/18 15:08:07;;;;;;;7.75;2.10;;;;;;;;;;4990499;28;20037;-68
2023/01/18 15:10:35;;;;;;;7.05;1.35;;;;;;;;;;4987403;28;20036;-69
2023/01/18 15:13:02;;;;;;;10.57;2.20;;;;;;;;;;4993950;28;20034;-69
2023/01/18 15:15:27;;;;;;;;;;;;;;;;;;4986375;28;20037;-68
2023/01/18 15:18:03;;;;;;;8.45;2.63;;;;;;;;;;4990477;28;20059;-69
2023/01/18 15:20:29;;;;;;;12.80;3.22;;;;;;;;;;4983365;28;20290;-69
2023/01/18 15:22:55;;;;;;;10.25;2.33;;;;;;;;;;4990082;28;20030;-67
2023/01/18 15:25:26;;;;;;;11.82;3.20;;;;;;;;;;4988183;28;20029;-67
2023/01/18 15:27:53;;;;;;;17.48;7.57;;;;;;;;;;4993592;28;20040;-70
2023/01/18 15:30:21;;;;;;;17.55;6.57;;;;;;;;;;4988425;28;20508;-68